sensor_id;sensor_type;location;lat;lon;timestamp;pressure;altitude;pressure_sealevel;temperature;humidity
20368;BME280;10343;52.402;9.796;2023-04-01T00:01:11;98872.66;;;20.50;52.63
20368;BME280;10343;52.402;9.796;2023-04-01T00:03:40;98868.53;;;20.56;52.18
20368;BME280;10343;52.402;9.796;2023-04-01T00:06:09;98868.16;;;19.51;54.90
20368;BME280;10343;52.402;9.796;2023-04-01T00:08:39;98876.13;;;19.63;54.71
20368;BME280;10343;52.402;9.796;2023-04-01T00:11:07;98877.47;;;19.47;55.80
20368;BME280;10343;52.402;9.796;2023-04-01T00:13:36;98872.50;;;19.83;54.21
20368;BME280;10343;52.402;9.796;2023-04-01T00:16:05;98865.19;;;20.44;52.52
20368;BME280;10343;52.402;9.796;2023-04-01T00:18:52;98865.88;;;21.13;51.17
20368;BME280;10343;52.402;9.796;2023-04-01T00:21:20;98868.84;;;20.04;53.08
20368;BME280;10343;52.402;9.796;2023-04-01T00:23:49;98864.91;;;20.18;53.23
20368;BME280;10343;52.402;9.796;2023-04-01T00:26:18;98868.00;;;19.84;53.45
20368;BME280;10343;52.402;9.796;2023-04-01T00:28:49;98877.72;;;19.75;53.78
20368;BME280;10343;52.402;9.796;2023-04-01T00:31:17;98875.03;;;19.75;52.20
20368;BME280;10343;52.402;9.796;2023-04-01T00:33:46;98884.06;;;19.74;54.26
20368;BME280;10343;52.402;9.796;2023-04-01T00:36:17;98873.53;;;20.02;53.23
20368;BME280;10343;52.402;9.796;2023-04-01T00:38:45;98875.03;;;19.75;53.50
20368;BME280;10343;52.402;9.796;2023-04-01T00:41:15;98872.78;;;19.80;53.45
20368;BME280;10343;52.402;9.796;2023-04-01T00:43:45;98865.44;;;20.80;51.36
20368;BME280;10343;52.402;9.796;2023-04-01T00:46:15;98869.72;;;19.95;52.27
20368;BME280;10343;52.402;9.796;2023-04-01T00:48:45;98868.66;;;20.64;51.29
20368;BME280;10343;52.402;9.796;2023-04-01T00:51:17;98872.25;;;20.06;51.79
20368;BME280;10343;52.402;9.796;2023-04-01T00:53:48;98873.09;;;20.16;52.44
20368;BME280;10343;52.402;9.796;2023-04-01T00:56:18;98872.75;;;18.99;54.47
20368;BME280;10343;52.402;9.796;2023-04-01T00:58:52;98873.63;;;18.99;55.19
20368;BME280;10343;52.402;9.796;2023-04-01T01:01:24;98877.25;;;19.20;55.37
20368;BME280;10343;52.402;9.796;2023-04-01T01:03:53;98875.53;;;19.49;54.04
20368;BME280;10343;52.402;9.796;2023-04-01T01:06:30;98880.38;;;18.94;55.54
20368;BME280;10343;52.402;9.796;2023-04-01T01:09:13;98885.56;;;19.98;52.27
20368;BME280;10343;52.402;9.796;2023-04-01T01:11:50;98872.25;;;18.63;56.74
20368;BME280;10343;52.402;9.796;2023-04-01T01:14:31;98879.19;;;19.48;53.46
20368;BME280;10343;52.402;9.796;2023-04-01T01:17:12;98871.97;;;20.48;51.27
20368;BME280;10343;52.402;9.796;2023-04-01T01:20:12;98875.88;;;20.93;50.73
20368;BME280;10343;52.402;9.796;2023-04-01T01:23:03;98874.66;;;20.48;51.15
20368;BME280;10343;52.402;9.796;2023-04-01T01:25:42;98877.34;;;20.19;51.36
20368;BME280;10343;52.402;9.796;2023-04-01T01:28:27;98871.25;;;19.37;53.78
20368;BME280;10343;52.402;9.796;2023-04-01T01:31:03;98871.22;;;19.88;52.59
20368;BME280;10343;52.402;9.796;2023-04-01T01:33:42;98880.41;;;19.75;52.83
20368;BME280;10343;52.402;9.796;2023-04-01T01:36:19;98877.97;;;19.72;52.60
20368;BME280;10343;52.402;9.796;2023-04-01T01:38:50;98874.38;;;19.42;53.74
20368;BME280;10343;52.402;9.796;2023-04-01T01:41:19;98868.00;;;19.84;52.78
20368;BME280;10343;52.402;9.796;2023-04-01T01:43:50;98868.41;;;20.48;51.51
20368;BME280;10343;52.402;9.796;2023-04-01T01:46:23;98868.69;;;19.96;51.91
20368;BME280;10343;52.402;9.796;2023-04-01T01:48:52;98875.66;;;20.47;50.29
20368;BME280;10343;52.402;9.796;2023-04-01T01:51:22;98859.47;;;20.77;50.57
20368;BME280;10343;52.402;9.796;2023-04-01T01:53:50;98867.44;;;20.39;50.05
20368;BME280;10343;52.402;9.796;2023-04-01T01:56:22;98867.81;;;20.83;50.42
20368;BME280;10343;52.402;9.796;2023-04-01T01:58:53;98868.00;;;20.33;50.99
20368;BME280;10343;52.402;9.796;2023-04-01T02:01:25;98866.84;;;20.84;49.92
20368;BME280;10343;52.402;9.796;2023-04-01T02:03:57;98870.69;;;20.72;50.35
20368;BME280;10343;52.402;9.796;2023-04-01T02:06:31;98872.94;;;20.77;49.70
20368;BME280;10343;52.402;9.796;2023-04-01T02:09:02;98877.91;;;21.57;47.57
20368;BME280;10343;52.402;9.796;2023-04-01T02:11:34;98871.88;;;21.35;47.90
20368;BME280;10343;52.402;9.796;2023-04-01T02:14:05;98873.09;;;20.56;49.46
20368;BME280;10343;52.402;9.796;2023-04-01T02:16:38;98877.09;;;20.32;50.75
20368;BME280;10343;52.402;9.796;2023-04-01T02:19:10;98866.72;;;21.14;48.78
20368;BME280;10343;52.402;9.796;2023-04-01T02:21:42;98872.25;;;21.12;48.69
20368;BME280;10343;52.402;9.796;2023-04-01T02:24:13;98865.84;;;21.23;47.79
20368;BME280;10343;52.402;9.796;2023-04-01T02:26:42;98872.59;;;21.37;48.05
20368;BME280;10343;52.402;9.796;2023-04-01T02:29:12;98875.78;;;21.13;48.16
20368;BME280;10343;52.402;9.796;2023-04-01T02:31:41;98872.59;;;21.37;47.44
20368;BME280;10343;52.402;9.796;2023-04-01T02:34:10;98876.84;;;21.40;47.23
20368;BME280;10343;52.402;9.796;2023-04-01T02:36:38;98879.31;;;20.76;47.97
20368;BME280;10343;52.402;9.796;2023-04-01T02:39:08;98875.09;;;21.11;47.72
20368;BME280;10343;52.402;9.796;2023-04-01T02:41:39;98872.69;;;21.17;47.12
20368;BME280;10343;52.402;9.796;2023-04-01T02:44:07;98873.09;;;21.50;46.69
20368;BME280;10343;52.402;9.796;2023-04-01T02:46:36;98881.06;;;20.18;49.58
20368;BME280;10343;52.402;9.796;2023-04-01T02:49:04;98883.28;;;20.42;49.30
20368;BME280;10343;52.402;9.796;2023-04-01T02:51:33;98894.94;;;20.43;49.05
20368;BME280;10343;52.402;9.796;2023-04-01T02:54:01;98886.06;;;21.37;47.34
20368;BME280;10343;52.402;9.796;2023-04-01T02:56:30;98888.06;;;20.87;48.74
20368;BME280;10343;52.402;9.796;2023-04-01T02:58:58;98889.44;;;21.01;47.60
20368;BME280;10343;52.402;9.796;2023-04-01T03:01:26;98885.97;;;21.29;47.06
20368;BME280;10343;52.402;9.796;2023-04-01T03:03:54;98889.53;;;20.13;49.62
20368;BME280;10343;52.402;9.796;2023-04-01T03:06:22;98892.06;;;20.54;49.24
20368;BME280;10343;52.402;9.796;2023-04-01T03:08:50;98886.25;;;20.78;48.34
20368;BME280;10343;52.402;9.796;2023-04-01T03:11:17;98881.56;;;20.80;48.32
20368;BME280;10343;52.402;9.796;2023-04-01T03:13:47;98893.16;;;20.91;48.15
20368;BME280;10343;52.402;9.796;2023-04-01T03:16:15;98888.00;;;21.07;47.85
20368;BME280;10343;52.402;9.796;2023-04-01T03:18:43;98894.03;;;20.62;48.66
20368;BME280;10343;52.402;9.796;2023-04-01T03:21:16;98899.56;;;20.60;48.93
20368;BME280;10343;52.402;9.796;2023-04-01T03:23:44;98892.63;;;19.99;50.64
20368;BME280;10343;52.402;9.796;2023-04-01T03:26:13;98895.41;;;19.37;52.67
20368;BME280;10343;52.402;9.796;2023-04-01T03:28:41;98893.47;;;19.99;51.47
20368;BME280;10343;52.402;9.796;2023-04-01T03:31:11;98890.94;;;19.57;52.30
20368;BME280;10343;52.402;9.796;2023-04-01T03:33:46;98889.81;;;20.30;50.88
20368;BME280;10343;52.402;9.796;2023-04-01T03:36:14;98890.09;;;20.07;50.58
20368;BME280;10343;52.402;9.796;2023-04-01T03:38:44;98894.78;;;19.55;52.25
20368;BME280;10343;52.402;9.796;2023-04-01T03:41:17;98893.91;;;20.14;51.19
20368;BME280;10343;52.402;9.796;2023-04-01T03:43:45;98888.69;;;20.13;51.59
20368;BME280;10343;52.402;9.796;2023-04-01T03:46:18;98902.69;;;19.46;52.64
20368;BME280;10343;52.402;9.796;2023-04-01T03:48:46;98899.06;;;19.67;52.79
20368;BME280;10343;52.402;9.796;2023-04-01T03:51:14;98905.72;;;19.32;53.68
20368;BME280;10343;52.402;9.796;2023-04-01T03:53:42;98909.88;;;19.87;52.15
20368;BME280;10343;52.402;9.796;2023-04-01T03:56:11;98908.50;;;20.02;52.30
20368;BME280;10343;52.402;9.796;2023-04-01T03:58:39;98902.44;;;20.19;52.26
20368;BME280;10343;52.402;9.796;2023-04-01T04:01:16;98904.81;;;19.52;53.33
20368;BME280;10343;52.402;9.796;2023-04-01T04:03:46;98904.47;;;18.63;55.74
20368;BME280;10343;52.402;9.796;2023-04-01T04:06:17;98909.38;;;19.72;53.94
20368;BME280;10343;52.402;9.796;2023-04-01T04:08:46;98904.75;;;19.83;53.06
20368;BME280;10343;52.402;9.796;2023-04-01T04:11:14;98902.53;;;20.08;51.64
20368;BME280;10343;52.402;9.796;2023-04-01T04:13:42;98909.66;;;19.59;53.39
20368;BME280;10343;52.402;9.796;2023-04-01T04:16:11;98914.50;;;19.34;53.91
20368;BME280;10343;52.402;9.796;2023-04-01T04:18:44;98913.03;;;19.61;53.33
20368;BME280;10343;52.402;9.796;2023-04-01T04:21:14;98909.19;;;19.23;54.92
20368;BME280;10343;52.402;9.796;2023-04-01T04:23:42;98913.03;;;20.31;51.78
20368;BME280;10343;52.402;9.796;2023-04-01T04:26:14;98914.84;;;19.50;52.91
20368;BME280;10343;52.402;9.796;2023-04-01T04:28:48;98909.38;;;20.71;50.74
20368;BME280;10343;52.402;9.796;2023-04-01T04:31:18;98915.00;;;20.09;51.70
20368;BME280;10343;52.402;9.796;2023-04-01T04:33:48;98917.50;;;19.81;53.39
20368;BME280;10343;52.402;9.796;2023-04-01T04:36:18;98918.53;;;19.59;53.14
20368;BME280;10343;52.402;9.796;2023-04-01T04:38:48;98924.72;;;19.50;53.75
20368;BME280;10343;52.402;9.796;2023-04-01T04:41:20;98925.59;;;19.91;52.49
20368;BME280;10343;52.402;9.796;2023-04-01T04:43:51;98925.16;;;19.45;54.78
20368;BME280;10343;52.402;9.796;2023-04-01T04:46:21;98923.09;;;19.28;54.92
20368;BME280;10343;52.402;9.796;2023-04-01T04:48:55;98929.06;;;18.68;56.62
20368;BME280;10343;52.402;9.796;2023-04-01T04:51:24;98925.53;;;18.67;56.84
20368;BME280;10343;52.402;9.796;2023-04-01T04:53:52;98923.38;;;18.82;56.28
20368;BME280;10343;52.402;9.796;2023-04-01T04:56:30;98925.34;;;18.80;56.72
20368;BME280;10343;52.402;9.796;2023-04-01T04:59:03;98926.13;;;18.50;58.82
20368;BME280;10343;52.402;9.796;2023-04-01T05:01:41;98936.38;;;18.66;57.73
20368;BME280;10343;52.402;9.796;2023-04-01T05:04:09;98934.31;;;18.37;59.48
20368;BME280;10343;52.402;9.796;2023-04-01T05:06:39;98936.19;;;19.21;55.74
20368;BME280;10343;52.402;9.796;2023-04-01T05:09:07;98932.38;;;18.93;57.26
20368;BME280;10343;52.402;9.796;2023-04-01T05:11:35;98929.22;;;18.88;55.93
20368;BME280;10343;52.402;9.796;2023-04-01T05:14:03;98939.09;;;18.87;56.49
20368;BME280;10343;52.402;9.796;2023-04-01T05:16:32;98935.16;;;19.12;56.32
20368;BME280;10343;52.402;9.796;2023-04-01T05:19:00;98937.88;;;19.53;54.33
20368;BME280;10343;52.402;9.796;2023-04-01T05:21:28;98939.72;;;19.83;54.18
20368;BME280;10343;52.402;9.796;2023-04-01T05:23:58;98939.06;;;18.66;56.92
20368;BME280;10343;52.402;9.796;2023-04-01T05:26:26;98934.44;;;18.68;57.40
20368;BME280;10343;52.402;9.796;2023-04-01T05:28:54;98935.06;;;18.93;56.62
20368;BME280;10343;52.402;9.796;2023-04-01T05:31:22;98945.72;;;19.04;56.58
20368;BME280;10343;52.402;9.796;2023-04-01T05:33:52;98948.25;;;19.58;54.62
20368;BME280;10343;52.402;9.796;2023-04-01T05:36:21;98942.69;;;19.49;55.12
20368;BME280;10343;52.402;9.796;2023-04-01T05:38:50;98947.19;;;18.76;56.09
20368;BME280;10343;52.402;9.796;2023-04-01T05:41:20;98940.06;;;19.69;55.22
20368;BME280;10343;52.402;9.796;2023-04-01T05:43:48;98950.22;;;19.56;54.84
20368;BME280;10343;52.402;9.796;2023-04-01T05:46:51;98953.09;;;18.70;57.14
20368;BME280;10343;52.402;9.796;2023-04-01T05:49:22;98948.34;;;19.15;55.69
20368;BME280;10343;52.402;9.796;2023-04-01T05:51:55;98954.69;;;18.93;56.23
20368;BME280;10343;52.402;9.796;2023-04-01T05:54:23;98952.09;;;19.65;54.63
20368;BME280;10343;52.402;9.796;2023-04-01T05:56:52;98962.59;;;19.78;53.84
20368;BME280;10343;52.402;9.796;2023-04-01T05:59:20;98953.44;;;19.49;54.41
20368;BME280;10343;52.402;9.796;2023-04-01T06:01:49;98954.31;;;19.81;54.96
20368;BME280;10343;52.402;9.796;2023-04-01T06:04:19;98958.19;;;19.67;54.48
20368;BME280;10343;52.402;9.796;2023-04-01T06:06:47;98956.84;;;19.51;55.09
20368;BME280;10343;52.402;9.796;2023-04-01T06:09:17;98959.88;;;19.68;54.52
20368;BME280;10343;52.402;9.796;2023-04-01T06:12:14;98962.41;;;19.91;54.39
20368;BME280;10343;52.402;9.796;2023-04-01T06:15:07;98962.63;;;19.47;54.16
20368;BME280;10343;52.402;9.796;2023-04-01T06:17:52;98968.50;;;20.12;53.00
20368;BME280;10343;52.402;9.796;2023-04-01T06:20:36;98971.53;;;19.78;52.66
20368;BME280;10343;52.402;9.796;2023-04-01T06:23:27;98974.84;;;19.92;53.26
20368;BME280;10343;52.402;9.796;2023-04-01T06:26:05;98971.50;;;21.17;49.17
20368;BME280;10343;52.402;9.796;2023-04-01T06:32:00;98987.56;;;20.40;51.33
20368;BME280;10343;52.402;9.796;2023-04-01T06:34:47;98987.00;;;21.05;50.55
20368;BME280;10343;52.402;9.796;2023-04-01T06:37:29;98986.03;;;19.97;52.04
20368;BME280;10343;52.402;9.796;2023-04-01T06:40:18;98994.59;;;20.31;51.59
20368;BME280;10343;52.402;9.796;2023-04-01T06:42:58;98988.84;;;20.46;51.44
20368;BME280;10343;52.402;9.796;2023-04-01T06:45:54;98992.31;;;20.07;52.80
20368;BME280;10343;52.402;9.796;2023-04-01T06:48:58;98987.56;;;20.40;51.57
20368;BME280;10343;52.402;9.796;2023-04-01T06:51:47;99002.03;;;19.98;51.83
20368;BME280;10343;52.402;9.796;2023-04-01T06:54:40;98982.97;;;22.04;49.38
20368;BME280;10343;52.402;9.796;2023-04-01T06:57:32;98998.06;;;21.12;49.07
20368;BME280;10343;52.402;9.796;2023-04-01T07:00:04;99008.44;;;19.76;53.48
20368;BME280;10343;52.402;9.796;2023-04-01T07:02:43;98998.00;;;20.24;52.68
20368;BME280;10343;52.402;9.796;2023-04-01T07:05:14;99004.84;;;20.67;50.96
20368;BME280;10343;52.402;9.796;2023-04-01T07:07:46;99004.31;;;20.83;50.20
20368;BME280;10343;52.402;9.796;2023-04-01T07:10:19;99008.56;;;20.85;50.50
20368;BME280;10343;52.402;9.796;2023-04-01T07:13:12;99000.88;;;20.91;51.07
20368;BME280;10343;52.402;9.796;2023-04-01T07:15:44;99006.81;;;20.45;51.37
20368;BME280;10343;52.402;9.796;2023-04-01T07:18:21;99007.50;;;21.35;48.93
20368;BME280;10343;52.402;9.796;2023-04-01T07:20:53;99003.94;;;21.35;49.02
20368;BME280;10343;52.402;9.796;2023-04-01T07:23:24;99011.56;;;21.49;48.14
20368;BME280;10343;52.402;9.796;2023-04-01T07:26:07;99017.41;;;21.92;47.19
20368;BME280;10343;52.402;9.796;2023-04-01T07:28:56;99020.25;;;21.91;47.43
20368;BME280;10343;52.402;9.796;2023-04-01T07:31:49;99023.84;;;21.04;49.50
20368;BME280;10343;52.402;9.796;2023-04-01T07:34:24;99028.25;;;20.76;49.70
20368;BME280;10343;52.402;9.796;2023-04-01T07:36:56;99034.59;;;21.34;48.85
20368;BME280;10343;52.402;9.796;2023-04-01T07:39:37;99024.75;;;22.00;46.99
20368;BME280;10343;52.402;9.796;2023-04-01T07:42:18;99038.59;;;21.10;48.16
20368;BME280;10343;52.402;9.796;2023-04-01T07:44:57;99035.91;;;21.20;48.61
20368;BME280;10343;52.402;9.796;2023-04-01T07:50:36;99043.34;;;21.46;48.45
20368;BME280;10343;52.402;9.796;2023-04-01T07:53:13;99043.34;;;21.55;48.63
20368;BME280;10343;52.402;9.796;2023-04-01T07:55:53;99046.50;;;21.41;48.20
20368;BME280;10343;52.402;9.796;2023-04-01T07:58:29;99044.72;;;20.23;50.91
20368;BME280;10343;52.402;9.796;2023-04-01T08:01:06;99050.72;;;21.63;47.96
20368;BME280;10343;52.402;9.796;2023-04-01T08:03:57;99052.50;;;22.66;46.00
20368;BME280;10343;52.402;9.796;2023-04-01T08:06:37;99043.25;;;23.75;43.36
20368;BME280;10343;52.402;9.796;2023-04-01T08:09:15;99053.75;;;23.26;45.24
20368;BME280;10343;52.402;9.796;2023-04-01T08:12:31;99050.75;;;22.19;46.28
20368;BME280;10343;52.402;9.796;2023-04-01T08:15:26;99066.78;;;21.35;47.72
20368;BME280;10343;52.402;9.796;2023-04-01T08:18:15;99063.00;;;22.69;45.34
20368;BME280;10343;52.402;9.796;2023-04-01T08:20:51;99062.16;;;24.36;43.06
20368;BME280;10343;52.402;9.796;2023-04-01T08:23:24;99057.59;;;23.05;44.17
20368;BME280;10343;52.402;9.796;2023-04-01T08:25:58;99069.75;;;23.19;43.09
20368;BME280;10343;52.402;9.796;2023-04-01T08:28:37;99060.88;;;23.79;42.99
20368;BME280;10343;52.402;9.796;2023-04-01T08:31:13;99058.13;;;24.40;42.21
20368;BME280;10343;52.402;9.796;2023-04-01T08:33:44;99076.84;;;22.38;45.57
20368;BME280;10343;52.402;9.796;2023-04-01T08:36:15;99074.09;;;22.66;44.20
20368;BME280;10343;52.402;9.796;2023-04-01T08:38:54;99071.91;;;22.23;45.41
20368;BME280;10343;52.402;9.796;2023-04-01T08:41:48;99074.75;;;22.96;44.07
20368;BME280;10343;52.402;9.796;2023-04-01T08:48:20;99078.66;;;22.65;44.24
20368;BME280;10343;52.402;9.796;2023-04-01T08:51:15;99080.47;;;22.93;44.25
20368;BME280;10343;52.402;9.796;2023-04-01T08:53:59;99072.69;;;24.47;40.45
20368;BME280;10343;52.402;9.796;2023-04-01T08:56:35;99081.66;;;23.52;42.05
20368;BME280;10343;52.402;9.796;2023-04-01T08:59:30;99093.72;;;21.65;44.62
20368;BME280;10343;52.402;9.796;2023-04-01T09:02:39;99084.34;;;23.79;40.89
20368;BME280;10343;52.402;9.796;2023-04-01T09:05:44;99098.13;;;21.66;44.40
20368;BME280;10343;52.402;9.796;2023-04-01T09:08:27;99089.97;;;21.85;44.96
20368;BME280;10343;52.402;9.796;2023-04-01T09:11:02;99096.41;;;21.45;45.43
20368;BME280;10343;52.402;9.796;2023-04-01T09:17:09;99086.69;;;24.85;39.54
20368;BME280;10343;52.402;9.796;2023-04-01T09:19:56;99092.47;;;23.79;39.44
20368;BME280;10343;52.402;9.796;2023-04-01T09:22:37;99094.31;;;22.62;42.20
20368;BME280;10343;52.402;9.796;2023-04-01T09:25:23;99108.59;;;21.69;44.35
20368;BME280;10343;52.402;9.796;2023-04-01T09:27:57;99094.81;;;23.47;41.44
20368;BME280;10343;52.402;9.796;2023-04-01T09:31:01;99099.03;;;24.71;38.19
20368;BME280;10343;52.402;9.796;2023-04-01T09:34:20;99100.28;;;25.10;37.70
20368;BME280;10343;52.402;9.796;2023-04-01T09:37:17;99109.44;;;25.83;36.45
20368;BME280;10343;52.402;9.796;2023-04-01T09:43:01;99112.81;;;23.38;39.94
20368;BME280;10343;52.402;9.796;2023-04-01T09:45:48;99123.47;;;23.22;40.67
20368;BME280;10343;52.402;9.796;2023-04-01T09:48:35;99117.13;;;23.94;39.26
20368;BME280;10343;52.402;9.796;2023-04-01T09:51:18;99120.28;;;24.15;38.57
20368;BME280;10343;52.402;9.796;2023-04-01T09:54:04;99121.84;;;23.47;39.87
20368;BME280;10343;52.402;9.796;2023-04-01T09:57:09;99121.81;;;25.12;36.83
20368;BME280;10343;52.402;9.796;2023-04-01T10:00:19;99131.75;;;22.56;41.79
20368;BME280;10343;52.402;9.796;2023-04-01T10:03:24;99134.75;;;23.80;38.99
20368;BME280;10343;52.402;9.796;2023-04-01T10:06:27;99133.84;;;25.25;37.28
20368;BME280;10343;52.402;9.796;2023-04-01T10:12:36;99145.25;;;25.54;36.44
20368;BME280;10343;52.402;9.796;2023-04-01T10:18:36;99147.22;;;23.72;39.36
20368;BME280;10343;52.402;9.796;2023-04-01T10:21:28;99147.84;;;23.66;39.82
20368;BME280;10343;52.402;9.796;2023-04-01T10:24:31;99151.53;;;23.39;40.16
20368;BME280;10343;52.402;9.796;2023-04-01T10:27:23;99155.81;;;24.89;38.07
20368;BME280;10343;52.402;9.796;2023-04-01T10:30:44;99160.94;;;22.33;41.84
20368;BME280;10343;52.402;9.796;2023-04-01T10:34:07;99161.72;;;22.81;42.00
20368;BME280;10343;52.402;9.796;2023-04-01T10:36:52;99163.59;;;23.27;40.50
20368;BME280;10343;52.402;9.796;2023-04-01T10:39:38;99157.63;;;22.77;42.05
20368;BME280;10343;52.402;9.796;2023-04-01T10:42:42;99155.06;;;24.36;38.79
20368;BME280;10343;52.402;9.796;2023-04-01T10:46:17;99168.66;;;22.18;42.82
20368;BME280;10343;52.402;9.796;2023-04-01T10:49:35;99176.72;;;21.51;44.25
20368;BME280;10343;52.402;9.796;2023-04-01T10:52:33;99176.50;;;22.12;43.30
20368;BME280;10343;52.402;9.796;2023-04-01T10:55:45;99174.06;;;22.18;43.25
20368;BME280;10343;52.402;9.796;2023-04-01T10:59:15;99167.22;;;23.35;40.92
20368;BME280;10343;52.402;9.796;2023-04-01T11:05:55;99172.97;;;25.06;38.45
20368;BME280;10343;52.402;9.796;2023-04-01T11:12:16;99178.56;;;25.13;37.76
20368;BME280;10343;52.402;9.796;2023-04-01T11:15:10;99184.25;;;25.86;36.65
20368;BME280;10343;52.402;9.796;2023-04-01T11:24:25;99200.38;;;22.16;44.44
20368;BME280;10343;52.402;9.796;2023-04-01T11:27:25;99198.28;;;23.03;42.82
20368;BME280;10343;52.402;9.796;2023-04-01T11:30:19;99210.56;;;22.22;44.19
20368;BME280;10343;52.402;9.796;2023-04-01T11:32:53;99215.28;;;22.01;45.00
20368;BME280;10343;52.402;9.796;2023-04-01T11:35:33;99213.78;;;22.46;44.14
20368;BME280;10343;52.402;9.796;2023-04-01T11:38:35;99213.63;;;21.80;44.81
20368;BME280;10343;52.402;9.796;2023-04-01T11:41:32;99209.63;;;23.07;42.77
20368;BME280;10343;52.402;9.796;2023-04-01T11:44:24;99212.63;;;23.32;42.34
20368;BME280;10343;52.402;9.796;2023-04-01T11:50:14;99212.22;;;25.94;37.65
20368;BME280;10343;52.402;9.796;2023-04-01T11:53:05;99211.38;;;27.15;35.71
20368;BME280;10343;52.402;9.796;2023-04-01T11:55:47;99218.81;;;26.33;36.27
20368;BME280;10343;52.402;9.796;2023-04-01T11:58:47;99216.28;;;25.49;37.72
20368;BME280;10343;52.402;9.796;2023-04-01T12:01:35;99219.47;;;24.77;38.59
20368;BME280;10343;52.402;9.796;2023-04-01T12:04:31;99228.47;;;24.25;39.46
20368;BME280;10343;52.402;9.796;2023-04-01T12:07:09;99225.44;;;25.65;37.24
20368;BME280;10343;52.402;9.796;2023-04-01T12:09:48;99226.13;;;25.75;37.05
20368;BME280;10343;52.402;9.796;2023-04-01T12:12:25;99228.50;;;25.53;37.92
20368;BME280;10343;52.402;9.796;2023-04-01T12:15:11;99236.56;;;25.29;36.67
20368;BME280;10343;52.402;9.796;2023-04-01T12:17:48;99238.03;;;24.37;39.23
20368;BME280;10343;52.402;9.796;2023-04-01T12:20:30;99234.66;;;26.13;37.02
20368;BME280;10343;52.402;9.796;2023-04-01T12:23:09;99240.72;;;25.74;36.53
20368;BME280;10343;52.402;9.796;2023-04-01T12:26:00;99243.97;;;26.27;35.69
20368;BME280;10343;52.402;9.796;2023-04-01T12:28:43;99250.94;;;26.13;36.27
20368;BME280;10343;52.402;9.796;2023-04-01T12:31:27;99250.84;;;24.09;37.64
20368;BME280;10343;52.402;9.796;2023-04-01T12:37:08;99257.66;;;23.77;40.66
20368;BME280;10343;52.402;9.796;2023-04-01T12:39:58;99253.25;;;25.58;37.17
20368;BME280;10343;52.402;9.796;2023-04-01T12:42:40;99250.81;;;25.31;37.06
20368;BME280;10343;52.402;9.796;2023-04-01T12:45:27;99254.44;;;26.38;36.20
20368;BME280;10343;52.402;9.796;2023-04-01T12:48:42;99259.22;;;26.03;35.70
20368;BME280;10343;52.402;9.796;2023-04-01T12:51:37;99270.56;;;24.72;37.35
20368;BME280;10343;52.402;9.796;2023-04-01T12:54:24;99282.16;;;24.12;39.71
20368;BME280;10343;52.402;9.796;2023-04-01T12:57:05;99277.41;;;23.69;40.19
20368;BME280;10343;52.402;9.796;2023-04-01T12:59:50;99269.56;;;25.91;37.15
20368;BME280;10343;52.402;9.796;2023-04-01T13:02:31;99270.38;;;26.58;35.51
20368;BME280;10343;52.402;9.796;2023-04-01T13:05:37;99288.31;;;25.35;36.31
20368;BME280;10343;52.402;9.796;2023-04-01T13:08:18;99289.38;;;24.03;38.23
20368;BME280;10343;52.402;9.796;2023-04-01T13:11:00;99299.22;;;23.40;39.15
20368;BME280;10343;52.402;9.796;2023-04-01T13:13:52;99295.31;;;24.51;37.89
20368;BME280;10343;52.402;9.796;2023-04-01T13:16:27;99298.38;;;24.74;37.51
20368;BME280;10343;52.402;9.796;2023-04-01T13:19:00;99300.88;;;25.36;36.74
20368;BME280;10343;52.402;9.796;2023-04-01T13:21:41;99301.16;;;24.90;37.30
20368;BME280;10343;52.402;9.796;2023-04-01T13:24:22;99307.38;;;24.56;38.24
20368;BME280;10343;52.402;9.796;2023-04-01T13:26:57;99319.47;;;24.18;38.98
20368;BME280;10343;52.402;9.796;2023-04-01T13:29:31;99318.09;;;24.40;39.53
20368;BME280;10343;52.402;9.796;2023-04-01T13:32:08;99318.97;;;24.67;39.02
20368;BME280;10343;52.402;9.796;2023-04-01T13:34:51;99315.31;;;25.53;38.18
20368;BME280;10343;52.402;9.796;2023-04-01T13:37:32;99316.16;;;25.46;37.59
20368;BME280;10343;52.402;9.796;2023-04-01T13:40:36;99321.50;;;25.97;37.12
20368;BME280;10343;52.402;9.796;2023-04-01T13:43:22;99327.56;;;24.88;39.02
20368;BME280;10343;52.402;9.796;2023-04-01T13:46:08;99331.72;;;24.74;39.16
20368;BME280;10343;52.402;9.796;2023-04-01T13:48:53;99337.78;;;25.29;37.73
20368;BME280;10343;52.402;9.796;2023-04-01T13:51:49;99331.38;;;25.04;39.21
20368;BME280;10343;52.402;9.796;2023-04-01T13:54:42;99343.59;;;25.08;38.39
20368;BME280;10343;52.402;9.796;2023-04-01T13:57:23;99354.34;;;24.65;39.43
20368;BME280;10343;52.402;9.796;2023-04-01T14:00:19;99366.75;;;21.16;46.95
20368;BME280;10343;52.402;9.796;2023-04-01T14:03:04;99366.44;;;21.50;47.72
20368;BME280;10343;52.402;9.796;2023-04-01T14:05:47;99373.66;;;20.78;49.46
20368;BME280;10343;52.402;9.796;2023-04-01T14:08:28;99384.81;;;20.52;51.03
20368;BME280;10343;52.402;9.796;2023-04-01T14:11:10;99390.66;;;20.04;52.44
20368;BME280;10343;52.402;9.796;2023-04-01T14:13:46;99387.72;;;20.61;50.93
20368;BME280;10343;52.402;9.796;2023-04-01T14:16:49;99398.25;;;20.31;52.53
20368;BME280;10343;52.402;9.796;2023-04-01T14:19:34;99404.22;;;19.36;56.73
20368;BME280;10343;52.402;9.796;2023-04-01T14:22:17;99408.69;;;19.69;55.04
20368;BME280;10343;52.402;9.796;2023-04-01T14:25:01;99425.44;;;19.84;53.02
20368;BME280;10343;52.402;9.796;2023-04-01T14:27:47;99428.84;;;18.49;56.29
20368;BME280;10343;52.402;9.796;2023-04-01T14:30:36;99424.25;;;19.21;56.08
20368;BME280;10343;52.402;9.796;2023-04-01T14:33:20;99427.84;;;19.88;54.09
20368;BME280;10343;52.402;9.796;2023-04-01T14:36:02;99429.22;;;19.82;53.07
20368;BME280;10343;52.402;9.796;2023-04-01T14:38:39;99439.41;;;19.33;53.72
20368;BME280;10343;52.402;9.796;2023-04-01T14:41:17;99439.38;;;19.10;55.64
20368;BME280;10343;52.402;9.796;2023-04-01T14:44:05;99450.25;;;18.73;55.67
20368;BME280;10343;52.402;9.796;2023-04-01T14:47:18;99457.72;;;19.28;53.76
20368;BME280;10343;52.402;9.796;2023-04-01T14:49:51;99448.31;;;19.22;54.79